Time;durP1;ratioP1;P1;durP2;ratioP2;P2;SDS_P1;SDS_P2;PMS_P1;PMS_P2;Temp;Humidity;BMP_temperature;BMP_pressure;BME280_temperature;BME280_humidity;BME280_pressure;Samples;Min_cycle;Max_cycle;Signal;HPM_P1;HPM_P2
2023/08/04 00:00:21;;;;;;;2.08;1.30;;;17.60;99.90;;;;;;5056428;28;20106;-75
2023/08/04 00:02:48;;;;;;;2.53;1.10;;;17.60;99.90;;;;;;5057641;28;20145;-75
2023/08/04 00:05:15;;;;;;;1.50;1.05;;;17.50;99.90;;;;;;5057948;28;20103;-75
2023/08/04 00:07:42;;;;;;;2.15;1.15;;;17.60;99.90;;;;;;5054569;28;20087;-75
2023/08/04 00:10:09;;;;;;;1.70;0.88;;;17.60;99.90;;;;;;5057061;28;20056;-75
2023/08/04 00:12:36;;;;;;;1.85;1.33;;;17.50;99.90;;;;;;5057590;28;20052;-75
2023/08/04 00:15:04;;;;;;;3.17;1.20;;;17.50;1.00;;;;;;5055751;28;20052;-74
2023/08/04 00:17:35;;;;;;;1.83;1.10;;;17.50;1.00;;;;;;5056097;28;20126;-74
2023/08/04 00:20:03;;;;;;;1.17;0.77;;;17.50;1.00;;;;;;5057793;28;20051;-76
2023/08/04 00:22:30;;;;;;;1.40;0.88;;;17.60;1.00;;;;;;5056889;28;20135;-76
2023/08/04 00:24:56;;;;;;;0.77;0.60;;;17.60;1.00;;;;;;5055747;28;20083;-76
2023/08/04 00:27:23;;;;;;;1.27;0.82;;;17.70;1.00;;;;;;5040066;28;20163;-76
2023/08/04 00:29:50;;;;;;;1.33;0.80;;;17.60;1.00;;;;;;5056050;28;20844;-76
2023/08/04 00:32:17;;;;;;;1.35;1.02;;;17.60;1.00;;;;;;5056837;28;20715;-73
2023/08/04 00:34:43;;;;;;;2.05;1.00;;;17.50;1.00;;;;;;5057291;28;20053;-74
2023/08/04 00:37:10;;;;;;;2.70;1.45;;;17.50;1.00;;;;;;5038391;28;20048;-74
2023/08/04 00:39:37;;;;;;;2.63;1.25;;;17.50;1.00;;;;;;5055982;28;20707;-74
2023/08/04 00:42:04;;;;;;;1.73;0.90;;;17.50;1.00;;;;;;5039544;28;20083;-74
2023/08/04 00:44:31;;;;;;;1.60;0.80;;;17.50;1.00;;;;;;5057196;28;20120;-74
2023/08/04 00:46:58;;;;;;;0.93;0.75;;;17.50;1.00;;;;;;5056557;28;20052;-74
2023/08/04 00:49:24;;;;;;;0.75;0.60;;;17.50;1.00;;;;;;5039722;28;20071;-74
2023/08/04 00:51:51;;;;;;;2.22;0.82;;;17.60;1.00;;;;;;5054808;28;20048;-74
2023/08/04 00:54:18;;;;;;;1.48;0.80;;;17.50;1.00;;;;;;5017911;28;20484;-74
2023/08/04 00:56:45;;;;;;;0.82;0.65;;;17.50;1.00;;;;;;5035268;28;20091;-75
2023/08/04 00:59:12;;;;;;;1.25;0.70;;;17.40;6.80;;;;;;5019776;28;20445;-74
2023/08/04 01:01:38;;;;;;;1.05;0.80;;;17.40;59.30;;;;;;5022013;28;20060;-74
2023/08/04 01:04:05;;;;;;;1.15;0.98;;;17.40;99.90;;;;;;5048168;28;20129;-74
2023/08/04 01:06:42;;;;;;;1.52;0.82;;;17.40;99.90;;;;;;5057132;28;20510;-74
2023/08/04 01:09:31;;;;;;;1.45;0.80;;;17.30;99.90;;;;;;5034442;28;20068;-74
2023/08/04 01:12:13;;;;;;;1.77;0.90;;;17.30;99.90;;;;;;5020388;28;20138;-75
2023/08/04 01:14:42;;;;;;;0.90;0.63;;;17.30;99.90;;;;;;5055167;28;20056;-75
2023/08/04 01:17:41;;;;;;;2.03;0.75;;;17.30;99.90;;;;;;5036124;28;20168;-75
2023/08/04 01:20:09;;;;;;;0.98;0.80;;;17.20;99.90;;;;;;4989226;28;20048;-75
2023/08/04 01:22:35;;;;;;;1.95;0.80;;;17.20;99.90;;;;;;5020910;28;20435;-74
2023/08/04 01:25:02;;;;;;;1.42;0.85;;;17.10;99.90;;;;;;5046702;28;20622;-75
2023/08/04 01:27:35;;;;;;;0.75;0.75;;;17.10;99.90;;;;;;5002652;28;20079;-74
2023/08/04 01:30:03;;;;;;;1.13;0.88;;;17.00;99.90;;;;;;5031435;28;20049;-74
2023/08/04 01:32:30;;;;;;;1.27;0.80;;;17.00;99.90;;;;;;5020164;28;20056;-74
2023/08/04 01:34:57;;;;;;;1.55;0.90;;;17.00;1.00;;;;;;5020495;28;20538;-76
2023/08/04 01:37:23;;;;;;;1.30;1.00;;;16.90;1.00;;;;;;5040531;28;20144;-74
2023/08/04 01:39:50;;;;;;;0.95;0.88;;;17.00;1.00;;;;;;5036749;28;20053;-73
2023/08/04 01:42:17;;;;;;;1.67;0.60;;;16.90;1.00;;;;;;5020351;28;20261;-73
2023/08/04 01:44:44;;;;;;;1.67;1.08;;;16.90;1.00;;;;;;5032913;28;20357;-74
2023/08/04 01:47:11;;;;;;;1.05;0.73;;;16.90;1.00;;;;;;5035408;28;20056;-76
2023/08/04 01:49:38;;;;;;;1.10;0.65;;;16.90;1.00;;;;;;5036661;28;20102;-74
2023/08/04 01:52:05;;;;;;;0.77;0.65;;;17.00;1.00;;;;;;5047020;28;20060;-74
2023/08/04 01:54:31;;;;;;;1.40;0.70;;;17.00;1.00;;;;;;5043470;28;20191;-74
2023/08/04 01:56:58;;;;;;;0.50;0.50;;;16.90;1.00;;;;;;5037678;28;20065;-74
2023/08/04 01:59:25;;;;;;;1.17;0.47;;;16.90;1.00;;;;;;5049105;28;20138;-74
2023/08/04 02:01:52;;;;;;;0.88;0.70;;;17.00;1.00;;;;;;5049947;28;20053;-74
2023/08/04 02:04:18;;;;;;;0.52;0.52;;;17.00;1.00;;;;;;5058844;28;20162;-76
2023/08/04 02:06:45;;;;;;;0.80;0.50;;;16.90;1.00;;;;;;5042749;28;20156;-75
2023/08/04 02:09:13;;;;;;;0.57;0.45;;;16.90;1.00;;;;;;5061417;28;20075;-75
2023/08/04 02:11:43;;;;;;;0.75;0.70;;;16.90;1.00;;;;;;5044654;28;20057;-74
2023/08/04 02:14:11;;;;;;;0.98;0.65;;;16.90;1.00;;;;;;5046529;28;20045;-75
2023/08/04 02:16:38;;;;;;;1.95;0.85;;;16.90;1.00;;;;;;5037011;28;20398;-74
2023/08/04 02:19:07;;;;;;;1.50;0.60;;;16.90;1.00;;;;;;5044224;28;20147;-75
2023/08/04 02:21:34;;;;;;;0.90;0.70;;;16.80;1.00;;;;;;5040707;28;20435;-75
2023/08/04 02:24:01;;;;;;;1.20;0.68;;;16.80;1.00;;;;;;5017892;28;20195;-75
2023/08/04 02:26:28;;;;;;;0.47;0.47;;;16.80;1.00;;;;;;5034647;28;20049;-75
2023/08/04 02:28:55;;;;;;;1.52;0.70;;;16.80;1.00;;;;;;5042319;28;20049;-74
2023/08/04 02:31:23;;;;;;;1.25;0.70;;;16.70;1.00;;;;;;5032959;28;20045;-75
2023/08/04 02:33:50;;;;;;;1.60;0.80;;;16.80;1.00;;;;;;5038602;28;20110;-74
2023/08/04 02:36:17;;;;;;;0.55;0.50;;;16.70;1.00;;;;;;5046164;28;20061;-74
2023/08/04 02:38:44;;;;;;;0.77;0.63;;;16.80;1.00;;;;;;5061818;28;20262;-74
2023/08/04 02:41:10;;;;;;;1.02;0.52;;;16.70;1.00;;;;;;5065075;28;20048;-74
2023/08/04 02:43:37;;;;;;;0.45;0.45;;;16.70;1.00;;;;;;5054774;28;20653;-74
2023/08/04 02:46:04;;;;;;;1.58;1.00;;;16.70;1.00;;;;;;5034093;28;20102;-74
2023/08/04 02:48:31;;;;;;;1.23;0.80;;;16.60;1.00;;;;;;5019370;28;20502;-74
2023/08/04 02:51:05;;;;;;;1.02;0.82;;;16.70;1.00;;;;;;5027422;28;20056;-74
2023/08/04 02:53:32;;;;;;;1.45;0.85;;;16.70;1.00;;;;;;5048076;28;20146;-75
2023/08/04 02:55:59;;;;;;;0.80;0.77;;;16.70;1.00;;;;;;5010363;28;20071;-74
2023/08/04 02:58:26;;;;;;;0.82;0.70;;;16.60;1.00;;;;;;5064319;28;20087;-74
2023/08/04 03:00:53;;;;;;;0.77;0.70;;;16.70;1.00;;;;;;5063621;28;20063;-74
2023/08/04 03:03:20;;;;;;;1.30;0.82;;;16.60;1.00;;;;;;5057684;28;20384;-74
2023/08/04 03:05:47;;;;;;;0.82;0.68;;;16.60;1.00;;;;;;5049845;28;20063;-74
2023/08/04 03:08:14;;;;;;;2.28;1.00;;;16.60;1.00;;;;;;5065360;28;20121;-74
2023/08/04 03:10:41;;;;;;;2.15;0.90;;;16.70;1.00;;;;;;5052231;28;20087;-74
2023/08/04 03:13:09;;;;;;;1.13;0.75;;;16.60;1.00;;;;;;5053408;28;20048;-75
2023/08/04 03:15:36;;;;;;;0.70;0.60;;;16.60;1.00;;;;;;5055277;28;20584;-76
2023/08/04 03:18:03;;;;;;;1.48;0.77;;;16.60;1.00;;;;;;5036209;28;20064;-74
2023/08/04 03:20:34;;;;;;;2.10;1.15;;;16.50;1.00;;;;;;5037042;28;20061;-74
2023/08/04 03:23:01;;;;;;;1.23;0.80;;;16.50;1.00;;;;;;5055607;28;20113;-75
2023/08/04 03:25:28;;;;;;;1.15;0.95;;;16.40;1.00;;;;;;5025873;28;20618;-75
2023/08/04 03:27:55;;;;;;;1.23;0.77;;;16.40;1.00;;;;;;5048781;28;20045;-75
2023/08/04 03:30:22;;;;;;;1.40;0.90;;;16.40;1.00;;;;;;5051425;28;20153;-74
2023/08/04 03:32:49;;;;;;;1.27;1.08;;;16.40;1.00;;;;;;5037707;28;20044;-74
2023/08/04 03:35:15;;;;;;;1.55;1.00;;;16.40;1.00;;;;;;5063473;28;20074;-74
2023/08/04 03:37:42;;;;;;;1.10;0.73;;;16.40;1.00;;;;;;5062579;28;20080;-74
2023/08/04 03:40:09;;;;;;;1.73;1.02;;;16.40;1.00;;;;;;5063847;28;20084;-74
2023/08/04 03:42:37;;;;;;;1.38;0.75;;;16.40;1.00;;;;;;5063400;28;20063;-74
2023/08/04 03:45:05;;;;;;;1.35;0.90;;;16.40;1.00;;;;;;5061097;28;20041;-74
2023/08/04 03:47:33;;;;;;;0.98;0.70;;;16.40;1.00;;;;;;5051143;28;20056;-74
2023/08/04 03:50:02;;;;;;;1.15;0.77;;;16.30;1.00;;;;;;5051889;28;20052;-74
2023/08/04 03:52:29;;;;;;;1.13;0.80;;;16.30;1.00;;;;;;5060816;28;20053;-74
2023/08/04 03:54:56;;;;;;;1.27;0.50;;;16.30;39.70;;;;;;5051087;28;20196;-74
2023/08/04 03:57:22;;;;;;;1.13;0.50;;;16.30;48.20;;;;;;5059865;28;20079;-74
2023/08/04 03:59:51;;;;;;;1.45;0.60;;;16.30;21.20;;;;;;5064070;28;20040;-74
2023/08/04 04:02:17;;;;;;;1.20;0.80;;;16.30;35.20;;;;;;5057546;28;20053;-74
2023/08/04 04:04:44;;;;;;;0.80;0.80;;;16.30;46.50;;;;;;5065119;28;20048;-74
2023/08/04 04:07:11;;;;;;;1.08;0.65;;;16.20;94.60;;;;;;5063943;28;20155;-75
2023/08/04 04:09:38;;;;;;;0.80;0.50;;;16.20;99.90;;;;;;5060316;28;20072;-74
2023/08/04 04:12:05;;;;;;;1.38;0.60;;;16.10;99.90;;;;;;5041387;28;20105;-74
2023/08/04 04:14:32;;;;;;;0.70;0.60;;;16.10;99.90;;;;;;5062604;28;20048;-74
2023/08/04 04:16:59;;;;;;;1.35;0.80;;;16.10;99.90;;;;;;5064643;28;20048;-74
2023/08/04 04:19:26;;;;;;;0.95;0.75;;;16.00;99.90;;;;;;5074172;28;20048;-74
2023/08/04 04:21:52;;;;;;;0.47;0.43;;;16.00;1.00;;;;;;5071002;28;20066;-74
2023/08/04 04:24:19;;;;;;;1.08;0.52;;;16.00;1.00;;;;;;5060806;28;20059;-73
2023/08/04 04:26:46;;;;;;;0.80;0.55;;;16.00;18.10;;;;;;5063636;28;20040;-75
2023/08/04 04:29:13;;;;;;;1.00;0.70;;;15.90;90.90;;;;;;5064856;28;20180;-75
2023/08/04 04:31:39;;;;;;;0.60;0.60;;;15.90;94.60;;;;;;5048858;28;20593;-74
2023/08/04 04:34:06;;;;;;;0.68;0.57;;;15.90;97.70;;;;;;5066802;28;20049;-74
2023/08/04 04:36:33;;;;;;;0.60;0.50;;;15.90;99.90;;;;;;5064888;28;20561;-74
2023/08/04 04:39:00;;;;;;;0.68;0.50;;;15.90;99.90;;;;;;5065667;28;20068;-74
2023/08/04 04:41:28;;;;;;;0.75;0.50;;;15.90;99.90;;;;;;5047237;28;20508;-74
2023/08/04 04:43:56;;;;;;;0.80;0.70;;;15.90;99.90;;;;;;5063610;28;20053;-75
2023/08/04 04:46:23;;;;;;;0.75;0.60;;;15.90;99.90;;;;;;5038641;28;20044;-75
2023/08/04 04:48:50;;;;;;;0.93;0.50;;;15.90;99.90;;;;;;5065403;28;20060;-75
2023/08/04 04:51:16;;;;;;;0.82;0.50;;;15.90;99.90;;;;;;5060063;28;20114;-75
2023/08/04 04:53:43;;;;;;;0.50;0.50;;;15.90;99.90;;;;;;5043506;28;20118;-75
2023/08/04 04:56:10;;;;;;;0.40;0.40;;;15.90;99.90;;;;;;5062494;28;20063;-75
2023/08/04 04:58:37;;;;;;;0.73;0.73;;;15.90;99.90;;;;;;5054635;28;20102;-75
2023/08/04 05:01:04;;;;;;;1.10;0.90;;;15.90;99.90;;;;;;5061146;28;20094;-75
2023/08/04 05:03:31;;;;;;;0.93;0.70;;;15.90;99.90;;;;;;5050385;28;20051;-75
2023/08/04 05:05:58;;;;;;;0.75;0.70;;;15.90;99.90;;;;;;5041736;28;20497;-74
2023/08/04 05:08:25;;;;;;;0.93;0.60;;;15.90;1.00;;;;;;5058093;28;20060;-74
2023/08/04 05:10:52;;;;;;;0.75;0.70;;;16.00;1.00;;;;;;5054793;28;20040;-74
2023/08/04 05:13:19;;;;;;;1.08;0.90;;;16.00;1.00;;;;;;5036062;28;20052;-75
2023/08/04 05:15:46;;;;;;;0.95;0.63;;;16.00;99.90;;;;;;5025557;28;20140;-75
2023/08/04 05:18:14;;;;;;;1.48;0.90;;;16.10;99.90;;;;;;5051881;28;20517;-75
2023/08/04 05:20:45;;;;;;;0.73;0.60;;;16.00;1.00;;;;;;5057600;28;20113;-75
2023/08/04 05:23:13;;;;;;;1.25;0.82;;;16.00;1.00;;;;;;5031757;28;20052;-74
2023/08/04 05:25:40;;;;;;;0.95;0.80;;;16.10;1.00;;;;;;5039085;28;20988;-75
2023/08/04 05:28:30;;;;;;;1.40;0.93;;;16.10;1.00;;;;;;5030507;28;20051;-74
2023/08/04 05:30:58;;;;;;;2.03;0.70;;;16.10;21.70;;;;;;5047861;28;20149;-75
2023/08/04 05:33:26;;;;;;;1.70;1.15;;;16.10;99.90;;;;;;5034498;28;20041;-75
2023/08/04 05:35:53;;;;;;;1.20;1.08;;;16.20;99.90;;;;;;5067395;28;20655;-74
2023/08/04 05:38:20;;;;;;;2.38;0.98;;;16.20;99.90;;;;;;5064036;28;20178;-75
2023/08/04 05:40:48;;;;;;;1.77;1.08;;;16.20;99.90;;;;;;5055861;28;20051;-74
2023/08/04 05:43:15;;;;;;;1.13;0.85;;;16.20;99.90;;;;;;5067072;28;20044;-75
2023/08/04 05:45:44;;;;;;;1.63;1.20;;;16.30;99.90;;;;;;5069588;28;20068;-74
2023/08/04 05:48:11;;;;;;;1.60;1.20;;;16.30;99.90;;;;;;5050928;28;20400;-74
2023/08/04 05:50:38;;;;;;;1.55;1.17;;;16.30;99.90;;;;;;5063206;28;20438;-74
2023/08/04 05:53:05;;;;;;;1.88;1.20;;;16.30;99.90;;;;;;5055091;28;20044;-75
2023/08/04 05:55:31;;;;;;;1.35;1.00;;;16.30;99.90;;;;;;5058646;28;20052;-74
2023/08/04 05:57:58;;;;;;;1.20;1.10;;;16.40;99.90;;;;;;5052069;28;20060;-75
2023/08/04 06:00:25;;;;;;;1.58;1.15;;;16.40;99.90;;;;;;5053729;28;20139;-74
2023/08/04 06:02:52;;;;;;;2.10;1.38;;;16.40;99.90;;;;;;5054740;28;20056;-74
2023/08/04 06:05:20;;;;;;;2.03;1.40;;;16.40;99.90;;;;;;5061057;28;20044;-74
2023/08/04 06:07:49;;;;;;;1.38;1.00;;;16.50;90.90;;;;;;5053628;28;20044;-75
2023/08/04 06:10:17;;;;;;;2.03;1.50;;;16.50;85.20;;;;;;5054528;28;20060;-74
2023/08/04 06:12:45;;;;;;;1.52;1.10;;;16.50;64.00;;;;;;5053866;28;20055;-75
2023/08/04 06:15:12;;;;;;;2.47;1.65;;;16.40;97.20;;;;;;5046976;28;20063;-75
2023/08/04 06:17:39;;;;;;;2.28;1.50;;;16.40;99.90;;;;;;5032932;28;20401;-75
2023/08/04 06:20:07;;;;;;;1.77;1.42;;;16.50;99.90;;;;;;5039546;28;20049;-75
2023/08/04 06:22:34;;;;;;;3.30;1.40;;;16.50;99.90;;;;;;5041834;28;20044;-75
2023/08/04 06:25:02;;;;;;;2.10;1.60;;;16.60;63.20;;;;;;5035708;28;20474;-74
2023/08/04 06:27:29;;;;;;;2.17;1.50;;;16.60;1.00;;;;;;5031490;28;20060;-75
2023/08/04 06:29:58;;;;;;;2.17;1.70;;;16.60;24.70;;;;;;5042199;28;20048;-74
2023/08/04 06:32:26;;;;;;;2.17;1.88;;;16.70;17.80;;;;;;5063731;28;20075;-74
2023/08/04 06:34:52;;;;;;;2.58;1.63;;;16.60;48.90;;;;;;5041017;28;20552;-74
2023/08/04 06:37:19;;;;;;;3.28;1.88;;;16.70;1.00;;;;;;5049720;28;20049;-75
2023/08/04 06:39:46;;;;;;;3.00;1.55;;;16.70;1.00;;;;;;5064739;28;20048;-75
2023/08/04 06:42:13;;;;;;;2.72;1.83;;;16.70;1.00;;;;;;5062694;28;21869;-74
2023/08/04 06:44:39;;;;;;;3.40;1.98;;;16.70;1.00;;;;;;5068944;28;20057;-74
2023/08/04 06:47:06;;;;;;;2.42;2.03;;;16.70;1.00;;;;;;5061004;28;20426;-74
2023/08/04 06:49:34;;;;;;;2.63;2.38;;;16.70;1.00;;;;;;5060062;28;20433;-75
2023/08/04 06:52:02;;;;;;;3.38;2.20;;;16.70;1.00;;;;;;5034394;28;20060;-74
2023/08/04 06:54:29;;;;;;;2.67;2.05;;;16.70;1.00;;;;;;5054841;28;20117;-75
2023/08/04 06:56:56;;;;;;;2.88;2.05;;;16.70;1.00;;;;;;5058838;28;20044;-75
2023/08/04 06:59:23;;;;;;;3.35;1.92;;;16.80;1.00;;;;;;5063774;28;20055;-74
2023/08/04 07:01:50;;;;;;;2.45;1.50;;;16.80;1.00;;;;;;5043575;28;20055;-74
2023/08/04 07:04:17;;;;;;;2.65;1.85;;;16.80;1.00;;;;;;5059635;28;20075;-74
2023/08/04 07:06:44;;;;;;;3.42;2.00;;;16.80;1.00;;;;;;5065443;28;20045;-74
2023/08/04 07:09:11;;;;;;;2.15;1.50;;;16.80;99.90;;;;;;5062686;28;20126;-74
2023/08/04 07:11:38;;;;;;;2.22;1.80;;;16.80;99.90;;;;;;5061401;28;20320;-74
2023/08/04 07:14:05;;;;;;;2.03;1.48;;;16.90;99.90;;;;;;5055121;28;20059;-74
2023/08/04 07:16:33;;;;;;;2.35;1.63;;;16.90;99.90;;;;;;5060024;28;20049;-73
2023/08/04 07:19:00;;;;;;;1.80;1.50;;;16.90;99.90;;;;;;5064870;28;20055;-75
2023/08/04 07:21:27;;;;;;;2.88;1.60;;;16.90;99.90;;;;;;5058903;28;20063;-74
2023/08/04 07:23:54;;;;;;;1.63;1.20;;;16.80;99.90;;;;;;5049062;28;20542;-74
2023/08/04 07:26:20;;;;;;;2.67;1.85;;;16.90;99.90;;;;;;5052193;28;20053;-74
2023/08/04 07:28:47;;;;;;;1.70;1.20;;;17.00;99.90;;;;;;5042539;28;20068;-75
2023/08/04 07:31:14;;;;;;;2.60;1.48;;;17.00;46.80;;;;;;5048738;28;20072;-74
2023/08/04 07:33:41;;;;;;;1.65;1.30;;;17.10;1.00;;;;;;5051037;28;20048;-74
2023/08/04 07:36:08;;;;;;;1.98;1.75;;;17.00;1.00;;;;;;5032076;28;20047;-73
2023/08/04 07:38:35;;;;;;;1.70;1.40;;;17.00;1.00;;;;;;5066735;28;20053;-74
2023/08/04 07:41:02;;;;;;;1.70;1.30;;;17.10;1.00;;;;;;5062347;28;20052;-74
2023/08/04 07:43:29;;;;;;;2.72;1.90;;;17.20;99.90;;;;;;5055439;28;20614;-73
2023/08/04 07:45:56;;;;;;;2.20;1.80;;;17.20;99.90;;;;;;5064974;28;20048;-74
2023/08/04 07:48:22;;;;;;;1.88;1.60;;;17.20;99.90;;;;;;5054663;28;20649;-74
2023/08/04 07:50:50;;;;;;;2.28;1.75;;;17.30;56.50;;;;;;5063667;28;20105;-75
2023/08/04 07:53:17;;;;;;;1.50;1.27;;;17.30;99.90;;;;;;5045499;28;20074;-74
2023/08/04 07:55:55;;;;;;;2.15;1.42;;;17.30;34.60;;;;;;5045549;28;20052;-75
2023/08/04 07:58:22;;;;;;;1.73;1.30;;;17.40;1.00;;;;;;5053530;28;20052;-74
2023/08/04 08:00:48;;;;;;;1.83;1.17;;;17.40;99.90;;;;;;5044037;28;20084;-74
2023/08/04 08:03:16;;;;;;;2.38;1.42;;;17.40;99.90;;;;;;5047478;28;20155;-74
2023/08/04 08:05:44;;;;;;;2.33;1.52;;;17.30;99.90;;;;;;5054252;28;20063;-74
2023/08/04 08:08:13;;;;;;;2.45;1.65;;;17.30;99.90;;;;;;5063193;28;20052;-73
2023/08/04 08:10:41;;;;;;;2.63;1.98;;;17.30;1.00;;;;;;5040298;28;20503;-74
2023/08/04 08:13:08;;;;;;;2.55;1.55;;;17.40;99.90;;;;;;5048590;28;20473;-73
2023/08/04 08:15:36;;;;;;;2.00;1.25;;;17.50;99.90;;;;;;5058251;28;20149;-73
2023/08/04 08:18:03;;;;;;;3.33;2.08;;;17.70;80.80;;;;;;5065851;28;20056;-73
2023/08/04 08:20:30;;;;;;;2.47;1.50;;;17.70;42.10;;;;;;5055586;28;20060;-73
2023/08/04 08:22:57;;;;;;;2.20;1.48;;;17.80;1.00;;;;;;5042026;28;20060;-73
2023/08/04 08:25:24;;;;;;;2.55;1.52;;;17.90;1.00;;;;;;5054258;28;20472;-74
2023/08/04 08:27:51;;;;;;;1.63;1.30;;;18.00;1.00;;;;;;5062362;28;20384;-73
2023/08/04 08:30:18;;;;;;;2.65;1.60;;;18.00;99.90;;;;;;5042862;28;20143;-73
2023/08/04 08:32:45;;;;;;;2.40;1.40;;;18.00;99.90;;;;;;5034465;28;20095;-74
2023/08/04 08:35:12;;;;;;;1.67;1.20;;;18.20;99.90;;;;;;5040709;28;20048;-73
2023/08/04 08:37:39;;;;;;;2.83;1.50;;;18.20;99.90;;;;;;5059705;28;20140;-73
2023/08/04 08:40:06;;;;;;;1.48;1.13;;;18.20;99.90;;;;;;5039371;28;20132;-74
2023/08/04 08:42:33;;;;;;;2.63;1.73;;;18.20;99.90;;;;;;5013996;28;20060;-73
2023/08/04 08:45:01;;;;;;;1.70;1.33;;;18.10;99.90;;;;;;5025292;28;20045;-74
2023/08/04 08:47:35;;;;;;;2.70;1.65;;;18.10;99.90;;;;;;5033667;28;20103;-74
2023/08/04 08:50:04;;;;;;;2.58;1.73;;;18.00;99.90;;;;;;5021870;28;20057;-74
2023/08/04 08:52:32;;;;;;;3.05;1.98;;;18.00;99.90;;;;;;5040540;28;20040;-75
2023/08/04 08:54:59;;;;;;;3.17;1.75;;;17.90;99.90;;;;;;5014413;28;20136;-74
2023/08/04 08:57:27;;;;;;;2.42;1.45;;;17.90;99.90;;;;;;5048579;28;20154;-74
2023/08/04 09:00:01;;;;;;;2.28;1.45;;;18.10;99.90;;;;;;5045651;28;20055;-74
2023/08/04 09:02:28;;;;;;;1.85;1.42;;;18.30;99.90;;;;;;5054133;28;20050;-75
2023/08/04 09:04:54;;;;;;;2.20;1.60;;;18.30;99.90;;;;;;5059917;28;20518;-75
2023/08/04 09:07:23;;;;;;;1.35;1.10;;;18.40;99.90;;;;;;5044462;28;20302;-75
2023/08/04 09:09:50;;;;;;;1.73;1.10;;;18.50;99.90;;;;;;5058634;28;20530;-75
2023/08/04 09:12:16;;;;;;;1.70;1.05;;;18.60;99.90;;;;;;5059060;28;20072;-74
2023/08/04 09:14:51;;;;;;;3.22;1.20;;;18.90;99.90;;;;;;5042699;28;20052;-74
2023/08/04 09:17:34;;;;;;;1.27;0.98;;;19.00;99.90;;;;;;5062024;28;20033;-74
2023/08/04 09:20:03;;;;;;;1.48;1.13;;;19.10;99.90;;;;;;5035850;28;20766;-74
2023/08/04 09:22:31;;;;;;;1.52;0.98;;;19.20;99.90;;;;;;5040638;28;20048;-74
2023/08/04 09:24:59;;;;;;;1.60;1.00;;;19.40;99.90;;;;;;5062629;28;20104;-73
2023/08/04 09:27:32;;;;;;;1.58;1.00;;;19.50;99.90;;;;;;5041413;28;20044;-74
2023/08/04 09:29:59;;;;;;;1.85;1.08;;;19.60;99.90;;;;;;5066202;28;20534;-76
2023/08/04 09:32:27;;;;;;;1.83;1.15;;;19.80;99.90;;;;;;5054003;28;20040;-75
2023/08/04 09:35:02;;;;;;;0.95;0.85;;;19.90;99.90;;;;;;5049644;28;20044;-76
2023/08/04 09:37:33;;;;;;;1.40;0.88;;;20.10;99.90;;;;;;5043657;28;20053;-75
2023/08/04 09:40:01;;;;;;;2.88;1.30;;;20.20;99.90;;;;;;5058769;28;20056;-76
2023/08/04 09:42:28;;;;;;;2.08;1.20;;;20.00;99.90;;;;;;5049036;28;20040;-75
2023/08/04 09:44:55;;;;;;;2.22;1.38;;;20.00;99.90;;;;;;5066400;28;20128;-76
2023/08/04 09:47:27;;;;;;;1.85;1.23;;;19.90;99.90;;;;;;5065411;28;20052;-76
2023/08/04 09:49:54;;;;;;;1.25;0.98;;;19.80;99.90;;;;;;5027559;28;20060;-76
2023/08/04 09:52:23;;;;;;;1.45;0.98;;;19.80;99.90;;;;;;5039638;28;20048;-75
2023/08/04 09:54:52;;;;;;;0.93;0.77;;;19.70;99.90;;;;;;5046678;28;20052;-76
2023/08/04 09:57:20;;;;;;;1.25;1.00;;;19.60;99.90;;;;;;5041237;28;20051;-76
2023/08/04 09:59:47;;;;;;;1.75;1.20;;;19.50;99.90;;;;;;5062280;28;20454;-76
2023/08/04 10:02:15;;;;;;;2.03;1.52;;;19.40;99.90;;;;;;5062064;28;20064;-75
2023/08/04 10:04:42;;;;;;;1.58;1.08;;;19.30;99.90;;;;;;5040324;28;20051;-76
2023/08/04 10:07:09;;;;;;;1.17;0.93;;;19.40;99.90;;;;;;5044898;28;20047;-75
2023/08/04 10:09:36;;;;;;;2.47;1.40;;;19.40;99.90;;;;;;5050532;28;20499;-76
2023/08/04 10:12:03;;;;;;;2.00;1.50;;;19.30;99.90;;;;;;5024341;28;20435;-75
2023/08/04 10:14:30;;;;;;;2.85;1.23;;;19.10;99.90;;;;;;5031366;28;20048;-76
2023/08/04 10:16:57;;;;;;;2.63;1.27;;;19.10;99.90;;;;;;5045983;28;20766;-76
2023/08/04 10:19:24;;;;;;;1.42;1.00;;;19.10;99.90;;;;;;5043839;28;20048;-76
2023/08/04 10:21:51;;;;;;;1.33;0.80;;;19.20;99.90;;;;;;5049213;28;20102;-75
2023/08/04 10:24:20;;;;;;;1.50;1.00;;;19.20;99.90;;;;;;5033137;28;20146;-77
2023/08/04 10:26:52;;;;;;;1.42;1.15;;;19.10;99.90;;;;;;5039598;28;20488;-77
2023/08/04 10:29:19;;;;;;;1.10;1.00;;;19.00;99.90;;;;;;5039910;28;20419;-77
2023/08/04 10:31:55;;;;;;;1.30;0.80;;;19.00;99.90;;;;;;5064087;28;20075;-77
2023/08/04 10:34:27;;;;;;;0.73;0.73;;;19.10;99.90;;;;;;5045375;28;20044;-76
2023/08/04 10:36:59;;;;;;;1.52;1.02;;;19.20;99.90;;;;;;5053673;28;20068;-76
2023/08/04 10:39:27;;;;;;;2.08;1.08;;;19.10;99.90;;;;;;5061368;28;20048;-76
2023/08/04 10:41:57;;;;;;;1.05;0.70;;;19.10;99.90;;;;;;5068264;28;20052;-76
2023/08/04 10:44:29;;;;;;;1.00;0.80;;;19.00;99.90;;;;;;5016637;28;20119;-75
2023/08/04 10:47:04;;;;;;;1.50;1.17;;;19.10;99.90;;;;;;5020897;28;20989;-76
2023/08/04 10:49:32;;;;;;;1.55;1.00;;;19.00;99.90;;;;;;5025771;28;20163;-76
2023/08/04 10:51:59;;;;;;;1.02;0.80;;;19.10;99.90;;;;;;5022670;28;20145;-75
2023/08/04 10:54:26;;;;;;;1.83;1.30;;;19.10;99.90;;;;;;5030121;28;20103;-76
2023/08/04 10:56:52;;;;;;;1.23;1.00;;;19.10;99.90;;;;;;5024186;28;20044;-76
2023/08/04 10:59:19;;;;;;;1.30;1.00;;;19.00;99.90;;;;;;5037872;28;20136;-75
2023/08/04 11:01:47;;;;;;;2.03;1.17;;;19.00;99.90;;;;;;5040795;28;20076;-75
2023/08/04 11:04:15;;;;;;;1.00;0.90;;;18.90;99.90;;;;;;5037811;28;20107;-75
2023/08/04 11:06:43;;;;;;;0.95;0.77;;;18.90;99.90;;;;;;5043978;28;20484;-75
2023/08/04 11:09:10;;;;;;;1.38;1.10;;;18.90;99.90;;;;;;5021574;28;20156;-72
2023/08/04 11:11:38;;;;;;;1.30;0.93;;;18.80;99.90;;;;;;5026535;28;20066;-74
2023/08/04 11:14:07;;;;;;;1.33;1.00;;;18.90;99.90;;;;;;5062887;28;20113;-74
2023/08/04 11:16:35;;;;;;;1.23;0.95;;;19.00;99.90;;;;;;5062553;28;20044;-74
2023/08/04 11:19:04;;;;;;;1.02;0.90;;;19.10;99.90;;;;;;5064316;28;20056;-74
2023/08/04 11:21:31;;;;;;;1.67;1.10;;;19.20;99.90;;;;;;5062261;28;20568;-75
2023/08/04 11:23:59;;;;;;;1.40;1.02;;;19.20;99.90;;;;;;5061603;28;20561;-74
2023/08/04 11:26:27;;;;;;;2.05;1.10;;;19.40;99.90;;;;;;5061812;28;20606;-74
2023/08/04 11:28:58;;;;;;;1.38;1.00;;;19.60;99.90;;;;;;5049414;28;20441;-75
2023/08/04 11:31:26;;;;;;;1.55;1.00;;;19.80;99.90;;;;;;5053827;28;20521;-75
2023/08/04 11:33:53;;;;;;;2.13;1.23;;;19.90;99.90;;;;;;5059125;28;20111;-75
2023/08/04 11:36:20;;;;;;;0.73;0.73;;;20.00;99.90;;;;;;5059057;28;20055;-74
2023/08/04 11:38:47;;;;;;;1.25;0.90;;;20.20;99.90;;;;;;5047316;28;20052;-75
2023/08/04 11:41:14;;;;;;;1.60;1.10;;;20.20;99.90;;;;;;5060292;28;20115;-75
2023/08/04 11:43:41;;;;;;;1.23;1.08;;;20.30;99.90;;;;;;5060624;28;20044;-75
2023/08/04 11:46:08;;;;;;;1.42;1.00;;;20.30;99.90;;;;;;5043321;28;20058;-75
2023/08/04 11:48:35;;;;;;;1.92;0.90;;;20.30;99.90;;;;;;5051132;28;20048;-75
2023/08/04 11:51:05;;;;;;;1.50;1.00;;;20.50;99.90;;;;;;5046453;28;20063;-75
2023/08/04 11:53:32;;;;;;;1.92;1.00;;;20.60;99.90;;;;;;5061533;28;20051;-75
2023/08/04 11:56:00;;;;;;;0.85;0.82;;;20.90;99.90;;;;;;5044407;28;20114;-75
2023/08/04 11:58:54;;;;;;;1.80;1.10;;;21.00;99.90;;;;;;5063191;28;20068;-74
2023/08/04 12:01:28;;;;;;;1.63;0.80;;;21.10;99.90;;;;;;5051575;28;20051;-74
2023/08/04 12:03:55;;;;;;;0.70;0.70;;;21.10;99.90;;;;;;5059695;28;20135;-75
2023/08/04 12:06:23;;;;;;;1.17;0.90;;;21.10;99.90;;;;;;5043753;28;20056;-75
2023/08/04 12:08:55;;;;;;;1.52;0.80;;;21.10;99.90;;;;;;5035467;28;20459;-75
2023/08/04 12:11:23;;;;;;;1.00;0.75;;;21.20;99.90;;;;;;5047579;28;20498;-75
2023/08/04 12:13:51;;;;;;;1.25;0.90;;;21.40;99.90;;;;;;5062502;28;20081;-74
2023/08/04 12:16:18;;;;;;;1.27;0.75;;;21.50;99.90;;;;;;5063246;28;20067;-74
2023/08/04 12:18:49;;;;;;;0.95;0.80;;;21.70;99.90;;;;;;5063250;28;20047;-74
2023/08/04 12:21:17;;;;;;;1.63;0.80;;;21.90;99.90;;;;;;5043935;28;20049;-74
2023/08/04 12:23:50;;;;;;;1.58;0.85;;;22.00;99.90;;;;;;5045368;28;20063;-74
2023/08/04 12:26:17;;;;;;;1.20;0.90;;;22.20;99.90;;;;;;5038477;28;20942;-74
2023/08/04 12:28:44;;;;;;;1.02;0.70;;;22.30;99.90;;;;;;5038722;28;20116;-74
2023/08/04 12:31:11;;;;;;;0.90;0.63;;;22.40;99.90;;;;;;5040867;28;20049;-75
2023/08/04 12:33:42;;;;;;;1.17;0.90;;;22.50;98.00;;;;;;5047318;28;20041;-74
2023/08/04 12:36:09;;;;;;;1.42;0.90;;;22.50;97.30;;;;;;5038469;28;20060;-74
2023/08/04 12:38:36;;;;;;;0.63;0.52;;;22.50;96.90;;;;;;5038330;28;20045;-74
2023/08/04 12:41:03;;;;;;;0.75;0.60;;;22.70;97.40;;;;;;5044898;28;20107;-74
2023/08/04 12:43:30;;;;;;;0.57;0.50;;;22.70;95.70;;;;;;5039711;28;20057;-74
2023/08/04 12:45:56;;;;;;;1.50;0.90;;;22.90;95.50;;;;;;5040611;28;20056;-74
2023/08/04 12:48:23;;;;;;;0.98;0.70;;;23.20;93.60;;;;;;5041920;28;20645;-74
2023/08/04 12:50:50;;;;;;;1.15;0.68;;;23.40;92.10;;;;;;5064721;28;20053;-74
2023/08/04 12:53:17;;;;;;;0.70;0.60;;;23.60;94.00;;;;;;5062206;28;20048;-74